createdAt,value
2022-11-05T08:52:08.080Z,21.42
2022-11-05T08:57:12.920Z,18.85
2022-11-05T09:02:20.058Z,15.15
2022-11-05T09:07:27.937Z,20.90
2022-11-05T09:12:32.011Z,18.25
2022-11-05T09:17:37.462Z,20.23
2022-11-05T09:22:45.133Z,19.23
2022-11-05T09:27:50.757Z,12.88
2022-11-05T09:32:57.092Z,21.90
2022-11-05T09:38:05.400Z,30.27
2022-11-05T09:43:17.376Z,20.67
2022-11-05T09:48:27.495Z,16.35
2022-11-05T09:53:33.222Z,15.82
2022-11-05T09:58:44.004Z,18.55
2022-11-05T10:03:53.104Z,15.80
2022-11-05T10:09:20.812Z,15.20
2022-11-05T10:14:28.941Z,12.35
2022-11-05T10:19:40.864Z,20.45
2022-11-05T10:24:51.981Z,12.65
2022-11-05T10:29:57.619Z,12.55
2022-11-05T10:35:06.662Z,12.23
2022-11-05T10:40:21.309Z,16.67
2022-11-05T10:45:37.025Z,11.43
2022-11-05T10:50:44.302Z,21.60
2022-11-05T10:55:58.646Z,15.40
2022-11-05T11:01:18.730Z,12.77
2022-11-05T11:12:40.708Z,12.25
2022-11-05T11:17:47.955Z,10.98
2022-11-05T11:23:03.316Z,16.67
2022-11-05T11:28:16.056Z,15.00
2022-11-05T11:33:24.560Z,12.85
2022-11-05T11:38:31.733Z,18.70
2022-11-05T11:43:38.668Z,14.80
2022-11-05T11:48:47.447Z,13.23
2022-11-05T11:53:51.360Z,14.73
2022-11-05T11:58:58.068Z,8.10
2022-11-05T12:04:13.654Z,14.18
2022-11-05T12:09:30.011Z,14.23
2022-11-05T12:14:46.309Z,9.02
2022-11-05T12:20:12.814Z,10.27
2022-11-05T12:25:33.912Z,9.63
2022-11-05T12:30:48.911Z,11.27
2022-11-05T12:36:07.878Z,18.58
2022-11-05T12:41:21.560Z,10.07
2022-11-05T12:46:31.100Z,9.77
2022-11-05T12:51:54.284Z,12.90
2022-11-05T12:57:02.231Z,11.82
2022-11-05T13:02:23.161Z,10.57
2022-11-05T13:07:33.397Z,8.68
2022-11-05T13:12:42.497Z,9.95
2022-11-05T13:17:53.472Z,9.98
2022-11-05T13:23:02.515Z,8.35
2022-11-05T13:28:29.243Z,11.80
2022-11-05T13:33:35.785Z,7.00
2022-11-05T13:39:07.048Z,6.70
2022-11-05T13:44:28.118Z,9.20
2022-11-05T13:49:50.363Z,9.18
2022-11-05T13:55:28.147Z,10.35
2022-11-05T14:00:38.081Z,16.60
2022-11-05T14:05:43.476Z,13.45
2022-11-05T14:11:00.205Z,6.60
2022-11-05T14:16:07.328Z,6.80
2022-11-05T14:21:46.656Z,8.23
2022-11-05T14:27:28.917Z,10.07
2022-11-05T14:32:49.972Z,11.27
2022-11-05T14:37:58.223Z,13.23
2022-11-05T14:43:05.668Z,8.18
2022-11-05T14:48:37.485Z,7.43
2022-11-05T14:53:41.814Z,10.98
2022-11-05T14:58:47.853Z,9.90
2022-11-05T15:04:17.856Z,11.43
2022-11-05T15:09:28.933Z,9.80
2022-11-05T15:14:37.570Z,10.50
2022-11-05T15:19:43.341Z,12.68
2022-11-05T15:24:46.931Z,13.73
2022-11-05T15:29:50.500Z,12.63
2022-11-05T15:34:56.961Z,12.52
2022-11-05T15:40:00.431Z,12.77
2022-11-05T15:45:04.555Z,17.30
2022-11-05T15:50:15.573Z,16.30
2022-11-05T15:55:23.850Z,28.38
2022-11-05T16:00:30.030Z,65.65
2022-11-05T16:05:37.492Z,85.55
2022-11-05T16:10:49.850Z,94.15
2022-11-05T16:15:56.130Z,83.45
2022-11-05T16:21:06.497Z,71.30
2022-11-05T16:27:00.461Z,68.43
2022-11-05T16:31:56.310Z,44.63
2022-11-05T16:37:01.636Z,42.20
2022-11-05T16:47:32.737Z,54.67
2022-11-05T16:52:41.729Z,57.58
2022-11-05T16:57:47.798Z,52.50
2022-11-05T17:02:54.023Z,62.75
2022-11-05T17:08:00.639Z,46.85
2022-11-05T17:13:04.287Z,35.50
2022-11-05T17:18:07.961Z,36.17
2022-11-05T17:23:18.029Z,39.20
2022-11-05T17:28:23.911Z,34.03
2022-11-05T17:33:28.452Z,64.60
2022-11-05T17:38:33.872Z,77.28
2022-11-05T17:43:37.585Z,65.53
2022-11-05T17:48:44.735Z,59.30
2022-11-05T17:53:50.076Z,44.92
2022-11-05T17:58:55.232Z,37.33
2022-11-05T18:09:11.137Z,43.35
2022-11-05T18:14:22.826Z,29.92
2022-11-05T18:19:28.418Z,29.05
2022-11-05T18:24:36.430Z,37.22
2022-11-05T18:29:40.233Z,33.63
2022-11-05T18:34:47.489Z,33.95
2022-11-05T18:39:53.179Z,36.00
2022-11-05T18:44:57.049Z,41.97
2022-11-05T18:50:02.799Z,40.03
2022-11-05T18:55:41.623Z,36.53
2022-11-05T19:01:00.223Z,37.60
2022-11-05T19:06:15.125Z,33.42
2022-11-05T19:12:05.227Z,23.85
2022-11-05T19:17:33.778Z,33.78
2022-11-05T19:22:59.566Z,29.20
2022-11-05T19:53:40.115Z,24.58
2022-11-05T19:59:20.933Z,28.95
2022-11-05T20:04:24.889Z,45.17
2022-11-05T20:09:29.022Z,33.03
2022-11-05T20:14:34.462Z,48.65
2022-11-05T20:19:40.372Z,51.00
2022-11-05T20:24:45.960Z,43.70
2022-11-05T20:29:51.414Z,41.95
2022-11-05T20:34:58.444Z,39.50
2022-11-05T20:40:10.887Z,35.55
2022-11-05T20:45:19.668Z,32.45
2022-11-05T20:50:25.970Z,28.10
2022-11-05T20:55:33.938Z,30.90
2022-11-05T21:00:53.393Z,27.25
2022-11-05T21:06:00.096Z,28.15
2022-11-05T21:11:04.301Z,27.52
2022-11-05T21:16:18.762Z,26.83
2022-11-05T21:21:22.660Z,29.88
2022-11-05T21:26:28.220Z,26.90
2022-11-05T21:31:33.755Z,27.98
2022-11-05T21:36:37.886Z,27.15
2022-11-05T21:41:43.027Z,22.92
2022-11-05T21:46:56.295Z,29.02
2022-11-05T21:52:18.981Z,24.60
2022-11-05T21:57:43.067Z,26.10
2022-11-05T22:02:48.981Z,21.03
2022-11-05T22:07:54.722Z,18.60
2022-11-05T22:12:58.349Z,19.45
2022-11-05T22:18:03.347Z,19.88
2022-11-05T22:23:11.070Z,27.60
2022-11-05T22:28:17.287Z,29.15
2022-11-05T22:33:24.978Z,32.17
2022-11-05T22:38:28.699Z,27.13
2022-11-05T22:43:33.519Z,33.88
2022-11-05T22:48:42.600Z,28.27
2022-11-05T22:53:47.002Z,27.48
2022-11-05T22:58:51.018Z,22.90
2022-11-05T23:03:57.569Z,21.92
2022-11-05T23:09:19.249Z,30.55
